sensor_id;sensor_type;location;lat;lon;timestamp;P1;durP1;ratioP1;P2;durP2;ratioP2
66384;SDS011;53426;55.872;37.462;2023-05-18T00:00:28;16.35;;;6.80;;
66384;SDS011;53426;55.872;37.462;2023-05-18T00:02:54;18.40;;;6.60;;
66384;SDS011;53426;55.872;37.462;2023-05-18T00:05:22;18.73;;;6.38;;
66384;SDS011;53426;55.872;37.462;2023-05-18T00:07:48;22.77;;;6.63;;
66384;SDS011;53426;55.872;37.462;2023-05-18T00:10:14;14.68;;;7.38;;
66384;SDS011;53426;55.872;37.462;2023-05-18T00:12:40;27.15;;;7.55;;
66384;SDS011;53426;55.872;37.462;2023-05-18T00:15:06;22.85;;;7.05;;
66384;SDS011;53426;55.872;37.462;2023-05-18T00:17:33;23.92;;;7.43;;
66384;SDS011;53426;55.872;37.462;2023-05-18T00:19:59;19.08;;;6.70;;
66384;SDS011;53426;55.872;37.462;2023-05-18T00:22:25;22.55;;;6.68;;
66384;SDS011;53426;55.872;37.462;2023-05-18T00:24:52;19.20;;;7.65;;
66384;SDS011;53426;55.872;37.462;2023-05-18T00:27:18;12.77;;;6.72;;
66384;SDS011;53426;55.872;37.462;2023-05-18T00:29:44;24.85;;;9.15;;
66384;SDS011;53426;55.872;37.462;2023-05-18T00:32:11;27.42;;;8.13;;
66384;SDS011;53426;55.872;37.462;2023-05-18T00:34:37;24.05;;;7.40;;
66384;SDS011;53426;55.872;37.462;2023-05-18T00:37:03;15.90;;;7.25;;
66384;SDS011;53426;55.872;37.462;2023-05-18T00:39:29;14.85;;;6.25;;
66384;SDS011;53426;55.872;37.462;2023-05-18T00:41:55;27.90;;;8.48;;
66384;SDS011;53426;55.872;37.462;2023-05-18T00:44:23;18.13;;;7.80;;
66384;SDS011;53426;55.872;37.462;2023-05-18T00:46:49;40.40;;;7.85;;
66384;SDS011;53426;55.872;37.462;2023-05-18T00:49:15;21.75;;;7.25;;
66384;SDS011;53426;55.872;37.462;2023-05-18T00:51:41;14.48;;;6.38;;
66384;SDS011;53426;55.872;37.462;2023-05-18T00:54:08;12.15;;;7.00;;
66384;SDS011;53426;55.872;37.462;2023-05-18T00:56:35;24.20;;;7.90;;
66384;SDS011;53426;55.872;37.462;2023-05-18T00:59:07;18.38;;;7.40;;
66384;SDS011;53426;55.872;37.462;2023-05-18T01:01:35;15.38;;;7.53;;
66384;SDS011;53426;55.872;37.462;2023-05-18T01:04:02;21.35;;;8.30;;
66384;SDS011;53426;55.872;37.462;2023-05-18T01:06:31;22.52;;;8.15;;
66384;SDS011;53426;55.872;37.462;2023-05-18T01:09:01;17.45;;;7.60;;
66384;SDS011;53426;55.872;37.462;2023-05-18T01:11:50;25.50;;;9.68;;
66384;SDS011;53426;55.872;37.462;2023-05-18T01:28:20;27.08;;;8.57;;
66384;SDS011;53426;55.872;37.462;2023-05-18T01:30:52;17.73;;;7.50;;
66384;SDS011;53426;55.872;37.462;2023-05-18T01:33:19;16.10;;;8.20;;
66384;SDS011;53426;55.872;37.462;2023-05-18T01:35:45;35.60;;;7.75;;
66384;SDS011;53426;55.872;37.462;2023-05-18T01:38:15;18.38;;;7.55;;
66384;SDS011;53426;55.872;37.462;2023-05-18T01:43:26;19.63;;;7.93;;
66384;SDS011;53426;55.872;37.462;2023-05-18T01:46:09;37.33;;;8.05;;
66384;SDS011;53426;55.872;37.462;2023-05-18T01:48:43;16.20;;;7.45;;
66384;SDS011;53426;55.872;37.462;2023-05-18T01:51:15;18.30;;;7.95;;
66384;SDS011;53426;55.872;37.462;2023-05-18T01:53:49;17.00;;;7.00;;
66384;SDS011;53426;55.872;37.462;2023-05-18T01:56:21;24.13;;;8.35;;
66384;SDS011;53426;55.872;37.462;2023-05-18T01:58:48;19.15;;;7.85;;
66384;SDS011;53426;55.872;37.462;2023-05-18T02:01:15;33.35;;;7.45;;
66384;SDS011;53426;55.872;37.462;2023-05-18T02:03:44;18.70;;;7.57;;
66384;SDS011;53426;55.872;37.462;2023-05-18T02:06:10;19.52;;;7.97;;
66384;SDS011;53426;55.872;37.462;2023-05-18T02:08:37;30.02;;;8.73;;
66384;SDS011;53426;55.872;37.462;2023-05-18T02:11:04;18.17;;;7.60;;
66384;SDS011;53426;55.872;37.462;2023-05-18T02:13:30;16.85;;;7.38;;
66384;SDS011;53426;55.872;37.462;2023-05-18T02:15:56;14.73;;;8.07;;
66384;SDS011;53426;55.872;37.462;2023-05-18T02:18:22;16.13;;;7.07;;
66384;SDS011;53426;55.872;37.462;2023-05-18T02:20:56;14.85;;;7.53;;
66384;SDS011;53426;55.872;37.462;2023-05-18T02:23:24;27.92;;;9.90;;
66384;SDS011;53426;55.872;37.462;2023-05-18T02:25:51;36.95;;;9.02;;
66384;SDS011;53426;55.872;37.462;2023-05-18T02:28:20;27.38;;;8.32;;
66384;SDS011;53426;55.872;37.462;2023-05-18T02:30:46;21.25;;;7.55;;
66384;SDS011;53426;55.872;37.462;2023-05-18T02:33:15;21.30;;;8.05;;
66384;SDS011;53426;55.872;37.462;2023-05-18T02:35:42;27.92;;;7.72;;
66384;SDS011;53426;55.872;37.462;2023-05-18T02:38:08;23.88;;;8.85;;
66384;SDS011;53426;55.872;37.462;2023-05-18T02:40:34;26.67;;;9.20;;
66384;SDS011;53426;55.872;37.462;2023-05-18T02:43:00;19.17;;;8.77;;
66384;SDS011;53426;55.872;37.462;2023-05-18T02:45:27;27.92;;;8.27;;
66384;SDS011;53426;55.872;37.462;2023-05-18T02:47:54;31.45;;;8.48;;
66384;SDS011;53426;55.872;37.462;2023-05-18T02:50:21;17.98;;;8.57;;
66384;SDS011;53426;55.872;37.462;2023-05-18T02:52:47;16.15;;;7.45;;
66384;SDS011;53426;55.872;37.462;2023-05-18T02:55:14;15.80;;;7.65;;
66384;SDS011;53426;55.872;37.462;2023-05-18T03:00:47;16.77;;;7.07;;
66384;SDS011;53426;55.872;37.462;2023-05-18T03:03:13;21.80;;;6.95;;
66384;SDS011;53426;55.872;37.462;2023-05-18T03:05:43;23.17;;;7.82;;
66384;SDS011;53426;55.872;37.462;2023-05-18T03:08:09;21.00;;;7.60;;
66384;SDS011;53426;55.872;37.462;2023-05-18T03:10:35;21.95;;;8.55;;
66384;SDS011;53426;55.872;37.462;2023-05-18T03:13:02;16.73;;;7.43;;
66384;SDS011;53426;55.872;37.462;2023-05-18T03:15:28;13.60;;;7.40;;
66384;SDS011;53426;55.872;37.462;2023-05-18T03:17:57;19.38;;;8.25;;
66384;SDS011;53426;55.872;37.462;2023-05-18T03:20:26;12.85;;;7.40;;
66384;SDS011;53426;55.872;37.462;2023-05-18T03:22:54;14.52;;;7.30;;
66384;SDS011;53426;55.872;37.462;2023-05-18T03:25:22;11.15;;;6.45;;
66384;SDS011;53426;55.872;37.462;2023-05-18T03:27:51;16.90;;;7.13;;
66384;SDS011;53426;55.872;37.462;2023-05-18T03:30:18;15.45;;;7.00;;
66384;SDS011;53426;55.872;37.462;2023-05-18T03:32:45;19.75;;;6.50;;
66384;SDS011;53426;55.872;37.462;2023-05-18T03:35:13;19.90;;;7.25;;
66384;SDS011;53426;55.872;37.462;2023-05-18T03:37:39;22.17;;;6.90;;
66384;SDS011;53426;55.872;37.462;2023-05-18T03:40:12;18.75;;;7.13;;
66384;SDS011;53426;55.872;37.462;2023-05-18T03:42:41;18.83;;;7.95;;
66384;SDS011;53426;55.872;37.462;2023-05-18T03:45:08;15.80;;;7.03;;
66384;SDS011;53426;55.872;37.462;2023-05-18T03:47:35;15.35;;;6.47;;
66384;SDS011;53426;55.872;37.462;2023-05-18T03:50:02;20.30;;;6.88;;
66384;SDS011;53426;55.872;37.462;2023-05-18T03:52:31;12.65;;;6.15;;
66384;SDS011;53426;55.872;37.462;2023-05-18T03:54:59;17.30;;;6.57;;
66384;SDS011;53426;55.872;37.462;2023-05-18T03:57:26;16.77;;;6.47;;
66384;SDS011;53426;55.872;37.462;2023-05-18T03:59:54;13.25;;;6.03;;
66384;SDS011;53426;55.872;37.462;2023-05-18T04:02:20;15.27;;;6.55;;
66384;SDS011;53426;55.872;37.462;2023-05-18T04:04:46;11.40;;;5.78;;
66384;SDS011;53426;55.872;37.462;2023-05-18T04:07:12;16.95;;;5.50;;
66384;SDS011;53426;55.872;37.462;2023-05-18T04:09:42;11.95;;;5.50;;
66384;SDS011;53426;55.872;37.462;2023-05-18T04:12:09;13.52;;;6.07;;
66384;SDS011;53426;55.872;37.462;2023-05-18T04:14:35;17.55;;;6.47;;
66384;SDS011;53426;55.872;37.462;2023-05-18T04:17:02;24.27;;;6.35;;
66384;SDS011;53426;55.872;37.462;2023-05-18T04:19:35;14.15;;;5.78;;
66384;SDS011;53426;55.872;37.462;2023-05-18T04:22:02;15.35;;;6.03;;
66384;SDS011;53426;55.872;37.462;2023-05-18T04:24:31;10.05;;;5.65;;
66384;SDS011;53426;55.872;37.462;2023-05-18T04:27:00;10.15;;;5.72;;
66384;SDS011;53426;55.872;37.462;2023-05-18T04:29:28;13.70;;;5.88;;
66384;SDS011;53426;55.872;37.462;2023-05-18T04:31:57;9.10;;;5.50;;
66384;SDS011;53426;55.872;37.462;2023-05-18T04:34:26;7.28;;;5.13;;
66384;SDS011;53426;55.872;37.462;2023-05-18T04:36:52;18.60;;;5.75;;
66384;SDS011;53426;55.872;37.462;2023-05-18T04:39:20;14.05;;;5.07;;
66384;SDS011;53426;55.872;37.462;2023-05-18T04:41:48;22.52;;;5.68;;
66384;SDS011;53426;55.872;37.462;2023-05-18T04:44:15;12.48;;;5.43;;
66384;SDS011;53426;55.872;37.462;2023-05-18T04:46:43;7.90;;;4.88;;
66384;SDS011;53426;55.872;37.462;2023-05-18T04:49:12;13.75;;;5.22;;
66384;SDS011;53426;55.872;37.462;2023-05-18T04:51:39;11.10;;;5.45;;
66384;SDS011;53426;55.872;37.462;2023-05-18T04:54:07;15.65;;;5.15;;
66384;SDS011;53426;55.872;37.462;2023-05-18T04:56:38;10.00;;;4.80;;
66384;SDS011;53426;55.872;37.462;2023-05-18T04:59:05;14.10;;;5.63;;
66384;SDS011;53426;55.872;37.462;2023-05-18T05:01:33;13.10;;;5.32;;
66384;SDS011;53426;55.872;37.462;2023-05-18T05:03:59;10.32;;;4.50;;
66384;SDS011;53426;55.872;37.462;2023-05-18T05:06:25;10.05;;;4.95;;
66384;SDS011;53426;55.872;37.462;2023-05-18T05:08:51;14.20;;;5.22;;
66384;SDS011;53426;55.872;37.462;2023-05-18T05:11:17;13.30;;;4.90;;
66384;SDS011;53426;55.872;37.462;2023-05-18T05:13:43;18.77;;;4.80;;
66384;SDS011;53426;55.872;37.462;2023-05-18T05:16:09;18.05;;;4.93;;
66384;SDS011;53426;55.872;37.462;2023-05-18T05:18:37;6.05;;;4.35;;
66384;SDS011;53426;55.872;37.462;2023-05-18T05:21:03;10.73;;;4.68;;
66384;SDS011;53426;55.872;37.462;2023-05-18T05:23:29;13.95;;;4.50;;
66384;SDS011;53426;55.872;37.462;2023-05-18T05:25:56;20.75;;;4.75;;
66384;SDS011;53426;55.872;37.462;2023-05-18T05:28:25;12.80;;;5.32;;
66384;SDS011;53426;55.872;37.462;2023-05-18T05:30:51;20.38;;;5.53;;
66384;SDS011;53426;55.872;37.462;2023-05-18T05:33:18;11.10;;;4.50;;
66384;SDS011;53426;55.872;37.462;2023-05-18T05:35:43;25.67;;;5.20;;
66384;SDS011;53426;55.872;37.462;2023-05-18T05:38:09;17.65;;;4.80;;
66384;SDS011;53426;55.872;37.462;2023-05-18T05:40:35;16.48;;;5.07;;
66384;SDS011;53426;55.872;37.462;2023-05-18T05:43:03;12.85;;;4.15;;
66384;SDS011;53426;55.872;37.462;2023-05-18T05:45:30;12.93;;;4.25;;
66384;SDS011;53426;55.872;37.462;2023-05-18T05:47:59;9.93;;;4.10;;
66384;SDS011;53426;55.872;37.462;2023-05-18T05:50:29;13.00;;;4.22;;
66384;SDS011;53426;55.872;37.462;2023-05-18T05:52:59;11.88;;;4.65;;
66384;SDS011;53426;55.872;37.462;2023-05-18T05:55:25;13.52;;;4.20;;
66384;SDS011;53426;55.872;37.462;2023-05-18T05:57:53;7.80;;;4.28;;
66384;SDS011;53426;55.872;37.462;2023-05-18T06:00:19;6.80;;;3.90;;
66384;SDS011;53426;55.872;37.462;2023-05-18T06:02:50;9.57;;;4.45;;
66384;SDS011;53426;55.872;37.462;2023-05-18T06:05:24;12.93;;;4.60;;
66384;SDS011;53426;55.872;37.462;2023-05-18T06:07:50;8.40;;;3.65;;
66384;SDS011;53426;55.872;37.462;2023-05-18T06:10:17;18.73;;;4.82;;
66384;SDS011;53426;55.872;37.462;2023-05-18T06:12:43;10.65;;;4.20;;
66384;SDS011;53426;55.872;37.462;2023-05-18T06:15:09;13.45;;;4.55;;
66384;SDS011;53426;55.872;37.462;2023-05-18T06:17:38;26.33;;;4.13;;
66384;SDS011;53426;55.872;37.462;2023-05-18T06:20:04;9.07;;;3.90;;
66384;SDS011;53426;55.872;37.462;2023-05-18T06:22:33;15.45;;;3.75;;
66384;SDS011;53426;55.872;37.462;2023-05-18T06:25:21;4.30;;;3.30;;
66384;SDS011;53426;55.872;37.462;2023-05-18T06:28:22;23.90;;;4.13;;
66384;SDS011;53426;55.872;37.462;2023-05-18T06:30:54;8.30;;;4.45;;
66384;SDS011;53426;55.872;37.462;2023-05-18T06:33:28;8.55;;;3.33;;
66384;SDS011;53426;55.872;37.462;2023-05-18T06:35:56;6.95;;;3.72;;
66384;SDS011;53426;55.872;37.462;2023-05-18T06:38:22;15.05;;;3.28;;
66384;SDS011;53426;55.872;37.462;2023-05-18T06:40:48;3.97;;;3.22;;
66384;SDS011;53426;55.872;37.462;2023-05-18T06:43:14;10.35;;;3.50;;
66384;SDS011;53426;55.872;37.462;2023-05-18T06:45:54;9.43;;;4.57;;
66384;SDS011;53426;55.872;37.462;2023-05-18T06:48:28;6.97;;;2.80;;
66384;SDS011;53426;55.872;37.462;2023-05-18T06:50:54;7.65;;;3.22;;
66384;SDS011;53426;55.872;37.462;2023-05-18T06:53:20;28.77;;;3.78;;
66384;SDS011;53426;55.872;37.462;2023-05-18T06:55:47;9.93;;;3.17;;
66384;SDS011;53426;55.872;37.462;2023-05-18T06:58:13;10.57;;;2.90;;
66384;SDS011;53426;55.872;37.462;2023-05-18T07:00:39;12.82;;;4.10;;
66384;SDS011;53426;55.872;37.462;2023-05-18T07:03:07;9.30;;;2.95;;
66384;SDS011;53426;55.872;37.462;2023-05-18T07:05:33;8.10;;;3.20;;
66384;SDS011;53426;55.872;37.462;2023-05-18T07:07:58;6.60;;;2.72;;
66384;SDS011;53426;55.872;37.462;2023-05-18T07:10:24;16.73;;;3.10;;
66384;SDS011;53426;55.872;37.462;2023-05-18T07:12:50;8.55;;;2.85;;
66384;SDS011;53426;55.872;37.462;2023-05-18T07:15:16;3.67;;;2.08;;
66384;SDS011;53426;55.872;37.462;2023-05-18T07:17:42;16.40;;;3.72;;
66384;SDS011;53426;55.872;37.462;2023-05-18T07:20:09;12.75;;;3.28;;
66384;SDS011;53426;55.872;37.462;2023-05-18T07:22:35;5.82;;;3.28;;
66384;SDS011;53426;55.872;37.462;2023-05-18T07:25:01;9.52;;;3.00;;
66384;SDS011;53426;55.872;37.462;2023-05-18T07:27:29;9.40;;;2.28;;
66384;SDS011;53426;55.872;37.462;2023-05-18T07:29:54;22.45;;;2.90;;
66384;SDS011;53426;55.872;37.462;2023-05-18T07:32:20;8.52;;;2.78;;
66384;SDS011;53426;55.872;37.462;2023-05-18T07:34:46;4.60;;;2.25;;
66384;SDS011;53426;55.872;37.462;2023-05-18T07:37:13;6.35;;;2.55;;
66384;SDS011;53426;55.872;37.462;2023-05-18T07:39:40;13.73;;;2.97;;
66384;SDS011;53426;55.872;37.462;2023-05-18T07:42:06;9.77;;;2.58;;
66384;SDS011;53426;55.872;37.462;2023-05-18T07:44:39;6.75;;;2.33;;
66384;SDS011;53426;55.872;37.462;2023-05-18T07:47:05;17.20;;;3.60;;
66384;SDS011;53426;55.872;37.462;2023-05-18T07:49:31;9.07;;;2.67;;
66384;SDS011;53426;55.872;37.462;2023-05-18T07:52:00;8.32;;;2.85;;
66384;SDS011;53426;55.872;37.462;2023-05-18T07:57:45;3.28;;;2.60;;
66384;SDS011;53426;55.872;37.462;2023-05-18T08:00:11;17.30;;;3.58;;
66384;SDS011;53426;55.872;37.462;2023-05-18T08:02:41;4.70;;;2.90;;
66384;SDS011;53426;55.872;37.462;2023-05-18T08:05:07;15.27;;;3.40;;
66384;SDS011;53426;55.872;37.462;2023-05-18T08:07:39;17.02;;;3.20;;
66384;SDS011;53426;55.872;37.462;2023-05-18T08:10:05;12.32;;;3.45;;
66384;SDS011;53426;55.872;37.462;2023-05-18T08:12:31;7.30;;;2.95;;
66384;SDS011;53426;55.872;37.462;2023-05-18T08:14:57;12.50;;;3.65;;
66384;SDS011;53426;55.872;37.462;2023-05-18T08:17:23;7.15;;;2.75;;
66384;SDS011;53426;55.872;37.462;2023-05-18T08:19:49;5.97;;;3.30;;
66384;SDS011;53426;55.872;37.462;2023-05-18T08:22:15;3.03;;;2.40;;
66384;SDS011;53426;55.872;37.462;2023-05-18T08:24:42;5.25;;;2.85;;
66384;SDS011;53426;55.872;37.462;2023-05-18T08:27:09;12.68;;;3.40;;
66384;SDS011;53426;55.872;37.462;2023-05-18T08:29:44;16.40;;;3.30;;
66384;SDS011;53426;55.872;37.462;2023-05-18T08:32:13;13.63;;;2.97;;
66384;SDS011;53426;55.872;37.462;2023-05-18T08:34:38;13.52;;;2.95;;
66384;SDS011;53426;55.872;37.462;2023-05-18T08:37:04;6.28;;;2.70;;
66384;SDS011;53426;55.872;37.462;2023-05-18T08:39:30;13.20;;;3.10;;
66384;SDS011;53426;55.872;37.462;2023-05-18T08:42:06;5.93;;;2.65;;
66384;SDS011;53426;55.872;37.462;2023-05-18T08:44:52;15.95;;;3.33;;
66384;SDS011;53426;55.872;37.462;2023-05-18T08:47:25;8.90;;;3.20;;
66384;SDS011;53426;55.872;37.462;2023-05-18T08:49:55;11.38;;;3.50;;
66384;SDS011;53426;55.872;37.462;2023-05-18T08:52:23;5.40;;;2.58;;
66384;SDS011;53426;55.872;37.462;2023-05-18T08:54:53;7.68;;;3.05;;
66384;SDS011;53426;55.872;37.462;2023-05-18T08:57:21;5.20;;;2.40;;
66384;SDS011;53426;55.872;37.462;2023-05-18T08:59:46;2.70;;;2.50;;
66384;SDS011;53426;55.872;37.462;2023-05-18T09:02:15;10.35;;;2.75;;
66384;SDS011;53426;55.872;37.462;2023-05-18T09:04:41;6.50;;;3.30;;
66384;SDS011;53426;55.872;37.462;2023-05-18T09:07:10;8.07;;;3.05;;
66384;SDS011;53426;55.872;37.462;2023-05-18T09:09:37;4.63;;;2.58;;
66384;SDS011;53426;55.872;37.462;2023-05-18T09:12:05;8.68;;;2.92;;
66384;SDS011;53426;55.872;37.462;2023-05-18T09:14:32;9.80;;;2.80;;
66384;SDS011;53426;55.872;37.462;2023-05-18T09:16:58;5.82;;;2.42;;
66384;SDS011;53426;55.872;37.462;2023-05-18T09:19:24;6.07;;;2.65;;
66384;SDS011;53426;55.872;37.462;2023-05-18T09:21:51;11.00;;;3.05;;
66384;SDS011;53426;55.872;37.462;2023-05-18T09:24:17;4.30;;;2.78;;
66384;SDS011;53426;55.872;37.462;2023-05-18T09:26:44;8.40;;;3.25;;
66384;SDS011;53426;55.872;37.462;2023-05-18T09:29:17;5.55;;;2.95;;
66384;SDS011;53426;55.872;37.462;2023-05-18T09:31:45;6.13;;;2.90;;
66384;SDS011;53426;55.872;37.462;2023-05-18T09:34:12;8.45;;;3.00;;
66384;SDS011;53426;55.872;37.462;2023-05-18T09:36:38;10.40;;;3.38;;
66384;SDS011;53426;55.872;37.462;2023-05-18T09:39:08;9.52;;;3.00;;
66384;SDS011;53426;55.872;37.462;2023-05-18T09:41:39;11.95;;;3.53;;
66384;SDS011;53426;55.872;37.462;2023-05-18T09:44:08;11.05;;;4.00;;
66384;SDS011;53426;55.872;37.462;2023-05-18T09:46:37;7.70;;;3.38;;
66384;SDS011;53426;55.872;37.462;2023-05-18T09:49:04;14.30;;;2.85;;
66384;SDS011;53426;55.872;37.462;2023-05-18T09:51:35;7.75;;;3.10;;
66384;SDS011;53426;55.872;37.462;2023-05-18T09:54:02;8.10;;;3.65;;
66384;SDS011;53426;55.872;37.462;2023-05-18T09:56:34;5.10;;;3.72;;
66384;SDS011;53426;55.872;37.462;2023-05-18T09:59:11;6.10;;;2.90;;
66384;SDS011;53426;55.872;37.462;2023-05-18T10:01:54;7.40;;;3.60;;
66384;SDS011;53426;55.872;37.462;2023-05-18T10:04:39;10.13;;;3.80;;
66384;SDS011;53426;55.872;37.462;2023-05-18T10:07:13;8.30;;;3.10;;
66384;SDS011;53426;55.872;37.462;2023-05-18T10:09:41;8.95;;;4.22;;
66384;SDS011;53426;55.872;37.462;2023-05-18T10:12:11;8.63;;;3.70;;
66384;SDS011;53426;55.872;37.462;2023-05-18T10:14:41;7.07;;;4.07;;
66384;SDS011;53426;55.872;37.462;2023-05-18T10:17:12;9.23;;;3.30;;
66384;SDS011;53426;55.872;37.462;2023-05-18T10:19:39;11.35;;;3.30;;
66384;SDS011;53426;55.872;37.462;2023-05-18T10:22:06;10.80;;;3.15;;
66384;SDS011;53426;55.872;37.462;2023-05-18T10:24:37;10.70;;;3.35;;
66384;SDS011;53426;55.872;37.462;2023-05-18T10:27:05;10.15;;;3.40;;
66384;SDS011;53426;55.872;37.462;2023-05-18T10:29:36;9.10;;;3.70;;
66384;SDS011;53426;55.872;37.462;2023-05-18T10:32:03;25.80;;;4.50;;
66384;SDS011;53426;55.872;37.462;2023-05-18T10:34:31;17.40;;;3.95;;
66384;SDS011;53426;55.872;37.462;2023-05-18T10:36:58;5.07;;;3.45;;
66384;SDS011;53426;55.872;37.462;2023-05-18T10:39:29;9.95;;;3.63;;
66384;SDS011;53426;55.872;37.462;2023-05-18T10:42:04;17.88;;;3.60;;
66384;SDS011;53426;55.872;37.462;2023-05-18T10:44:33;7.00;;;3.55;;
66384;SDS011;53426;55.872;37.462;2023-05-18T10:47:00;10.00;;;3.75;;
66384;SDS011;53426;55.872;37.462;2023-05-18T10:49:28;6.90;;;3.45;;
66384;SDS011;53426;55.872;37.462;2023-05-18T10:51:56;5.28;;;3.50;;
66384;SDS011;53426;55.872;37.462;2023-05-18T10:54:24;10.15;;;3.60;;
66384;SDS011;53426;55.872;37.462;2023-05-18T10:56:51;7.40;;;3.38;;
66384;SDS011;53426;55.872;37.462;2023-05-18T10:59:18;7.55;;;3.60;;
66384;SDS011;53426;55.872;37.462;2023-05-18T11:01:45;9.48;;;3.60;;
66384;SDS011;53426;55.872;37.462;2023-05-18T11:04:13;5.60;;;3.38;;
66384;SDS011;53426;55.872;37.462;2023-05-18T11:06:39;6.20;;;3.60;;
66384;SDS011;53426;55.872;37.462;2023-05-18T11:09:05;5.00;;;3.38;;
66384;SDS011;53426;55.872;37.462;2023-05-18T11:11:49;3.40;;;3.10;;
66384;SDS011;53426;55.872;37.462;2023-05-18T11:14:23;5.32;;;3.15;;
66384;SDS011;53426;55.872;37.462;2023-05-18T11:16:51;4.43;;;3.40;;
66384;SDS011;53426;55.872;37.462;2023-05-18T11:19:17;9.63;;;3.63;;
66384;SDS011;53426;55.872;37.462;2023-05-18T11:24:29;7.80;;;3.17;;
66384;SDS011;53426;55.872;37.462;2023-05-18T11:26:57;3.85;;;3.30;;
66384;SDS011;53426;55.872;37.462;2023-05-18T11:29:42;11.65;;;4.00;;
66384;SDS011;53426;55.872;37.462;2023-05-18T11:32:30;13.55;;;4.20;;
66384;SDS011;53426;55.872;37.462;2023-05-18T11:34:58;10.23;;;3.20;;
66384;SDS011;53426;55.872;37.462;2023-05-18T11:40:08;12.48;;;3.63;;
66384;SDS011;53426;55.872;37.462;2023-05-18T11:42:35;6.72;;;3.50;;
66384;SDS011;53426;55.872;37.462;2023-05-18T11:45:08;10.93;;;4.10;;
66384;SDS011;53426;55.872;37.462;2023-05-18T11:47:35;7.50;;;3.53;;
66384;SDS011;53426;55.872;37.462;2023-05-18T11:50:02;5.70;;;3.40;;
66384;SDS011;53426;55.872;37.462;2023-05-18T11:52:31;8.80;;;3.67;;
66384;SDS011;53426;55.872;37.462;2023-05-18T11:54:57;5.65;;;3.42;;
66384;SDS011;53426;55.872;37.462;2023-05-18T11:57:46;8.15;;;3.33;;
66384;SDS011;53426;55.872;37.462;2023-05-18T12:00:12;14.38;;;3.22;;
66384;SDS011;53426;55.872;37.462;2023-05-18T12:02:42;7.03;;;3.47;;
66384;SDS011;53426;55.872;37.462;2023-05-18T12:05:09;8.45;;;3.22;;
66384;SDS011;53426;55.872;37.462;2023-05-18T12:07:35;5.72;;;3.35;;
66384;SDS011;53426;55.872;37.462;2023-05-18T12:10:05;11.82;;;3.42;;
66384;SDS011;53426;55.872;37.462;2023-05-18T12:12:34;4.38;;;3.30;;
66384;SDS011;53426;55.872;37.462;2023-05-18T12:15:00;20.45;;;3.78;;
66384;SDS011;53426;55.872;37.462;2023-05-18T12:17:45;5.22;;;3.60;;
66384;SDS011;53426;55.872;37.462;2023-05-18T12:20:22;9.80;;;4.05;;
66384;SDS011;53426;55.872;37.462;2023-05-18T12:22:53;8.40;;;3.17;;
66384;SDS011;53426;55.872;37.462;2023-05-18T12:25:24;12.88;;;3.40;;
66384;SDS011;53426;55.872;37.462;2023-05-18T12:27:51;5.63;;;3.67;;
66384;SDS011;53426;55.872;37.462;2023-05-18T12:30:18;8.35;;;3.40;;
66384;SDS011;53426;55.872;37.462;2023-05-18T12:35:25;7.07;;;3.10;;
66384;SDS011;53426;55.872;37.462;2023-05-18T12:37:52;7.13;;;3.95;;
66384;SDS011;53426;55.872;37.462;2023-05-18T12:40:20;15.43;;;3.47;;
66384;SDS011;53426;55.872;37.462;2023-05-18T12:43:04;4.22;;;3.17;;
66384;SDS011;53426;55.872;37.462;2023-05-18T12:45:31;6.65;;;3.00;;
66384;SDS011;53426;55.872;37.462;2023-05-18T12:50:30;7.35;;;3.20;;
66384;SDS011;53426;55.872;37.462;2023-05-18T12:52:56;6.85;;;3.10;;
66384;SDS011;53426;55.872;37.462;2023-05-18T12:55:22;15.73;;;3.53;;
66384;SDS011;53426;55.872;37.462;2023-05-18T12:58:02;12.32;;;3.53;;
66384;SDS011;53426;55.872;37.462;2023-05-18T13:00:35;4.80;;;2.80;;
66384;SDS011;53426;55.872;37.462;2023-05-18T13:03:05;7.63;;;3.80;;
66384;SDS011;53426;55.872;37.462;2023-05-18T13:05:32;5.55;;;2.88;;
66384;SDS011;53426;55.872;37.462;2023-05-18T13:07:57;11.63;;;3.03;;
66384;SDS011;53426;55.872;37.462;2023-05-18T13:10:28;19.63;;;2.90;;
66384;SDS011;53426;55.872;37.462;2023-05-18T13:12:56;9.88;;;2.90;;
66384;SDS011;53426;55.872;37.462;2023-05-18T13:15:30;9.40;;;2.70;;
66384;SDS011;53426;55.872;37.462;2023-05-18T13:18:06;7.50;;;3.40;;
66384;SDS011;53426;55.872;37.462;2023-05-18T13:23:13;11.50;;;4.28;;
66384;SDS011;53426;55.872;37.462;2023-05-18T13:25:40;4.68;;;2.75;;
66384;SDS011;53426;55.872;37.462;2023-05-18T13:28:07;7.75;;;3.47;;
66384;SDS011;53426;55.872;37.462;2023-05-18T13:30:38;7.28;;;2.97;;
66384;SDS011;53426;55.872;37.462;2023-05-18T13:33:08;8.98;;;2.90;;
66384;SDS011;53426;55.872;37.462;2023-05-18T13:35:35;5.10;;;2.60;;
66384;SDS011;53426;55.872;37.462;2023-05-18T13:38:01;3.35;;;2.40;;
66384;SDS011;53426;55.872;37.462;2023-05-18T13:40:29;8.18;;;2.80;;
66384;SDS011;53426;55.872;37.462;2023-05-18T13:42:55;5.55;;;3.70;;
66384;SDS011;53426;55.872;37.462;2023-05-18T13:45:21;4.88;;;2.92;;
66384;SDS011;53426;55.872;37.462;2023-05-18T13:47:46;7.97;;;3.75;;
66384;SDS011;53426;55.872;37.462;2023-05-18T13:50:17;14.88;;;3.90;;
66384;SDS011;53426;55.872;37.462;2023-05-18T13:52:44;6.38;;;3.15;;
66384;SDS011;53426;55.872;37.462;2023-05-18T13:58:01;9.00;;;3.08;;
66384;SDS011;53426;55.872;37.462;2023-05-18T14:00:27;9.25;;;2.97;;
66384;SDS011;53426;55.872;37.462;2023-05-18T14:02:53;17.20;;;3.70;;
66384;SDS011;53426;55.872;37.462;2023-05-18T14:05:18;8.68;;;3.40;;
66384;SDS011;53426;55.872;37.462;2023-05-18T14:07:44;8.77;;;3.40;;
66384;SDS011;53426;55.872;37.462;2023-05-18T14:10:10;8.75;;;4.55;;
66384;SDS011;53426;55.872;37.462;2023-05-18T14:12:38;12.38;;;4.88;;
66384;SDS011;53426;55.872;37.462;2023-05-18T14:15:06;13.25;;;3.30;;
66384;SDS011;53426;55.872;37.462;2023-05-18T14:17:34;9.60;;;3.30;;
66384;SDS011;53426;55.872;37.462;2023-05-18T14:20:00;5.13;;;3.78;;
66384;SDS011;53426;55.872;37.462;2023-05-18T14:22:26;7.50;;;5.45;;
66384;SDS011;53426;55.872;37.462;2023-05-18T14:24:56;6.88;;;3.17;;
66384;SDS011;53426;55.872;37.462;2023-05-18T14:27:22;9.15;;;3.58;;
66384;SDS011;53426;55.872;37.462;2023-05-18T14:29:48;10.23;;;7.38;;
66384;SDS011;53426;55.872;37.462;2023-05-18T14:32:14;4.35;;;3.67;;
66384;SDS011;53426;55.872;37.462;2023-05-18T14:34:40;6.95;;;3.10;;
66384;SDS011;53426;55.872;37.462;2023-05-18T14:37:06;12.95;;;3.60;;
66384;SDS011;53426;55.872;37.462;2023-05-18T14:39:32;8.20;;;3.63;;
66384;SDS011;53426;55.872;37.462;2023-05-18T14:42:01;6.43;;;3.45;;
66384;SDS011;53426;55.872;37.462;2023-05-18T14:44:27;10.95;;;3.88;;
66384;SDS011;53426;55.872;37.462;2023-05-18T14:46:52;18.50;;;4.03;;
66384;SDS011;53426;55.872;37.462;2023-05-18T14:49:18;11.32;;;4.43;;
66384;SDS011;53426;55.872;37.462;2023-05-18T14:51:44;13.07;;;4.60;;
66384;SDS011;53426;55.872;37.462;2023-05-18T14:54:09;8.27;;;3.78;;
66384;SDS011;53426;55.872;37.462;2023-05-18T14:56:37;12.82;;;4.40;;
66384;SDS011;53426;55.872;37.462;2023-05-18T14:59:03;15.27;;;4.78;;
66384;SDS011;53426;55.872;37.462;2023-05-18T15:01:28;10.75;;;4.80;;
66384;SDS011;53426;55.872;37.462;2023-05-18T15:03:54;20.00;;;5.35;;
66384;SDS011;53426;55.872;37.462;2023-05-18T15:06:20;10.85;;;5.90;;
66384;SDS011;53426;55.872;37.462;2023-05-18T15:08:46;12.95;;;4.72;;
66384;SDS011;53426;55.872;37.462;2023-05-18T15:11:13;13.88;;;4.85;;